createdAt,value
2019-05-01T00:01:00.976Z,10.20
2019-05-01T00:03:48.609Z,10.30
2019-05-01T00:06:28.609Z,10.20
2019-05-01T00:08:58.251Z,10.20
2019-05-01T00:11:27.709Z,10.20
2019-05-01T00:13:57.425Z,10.30
2019-05-01T00:16:26.893Z,10.10
2019-05-01T00:18:56.528Z,10.10
2019-05-01T00:21:25.979Z,10.00
2019-05-01T00:23:55.449Z,9.90
2019-05-01T00:26:24.906Z,10.10
2019-05-01T00:28:54.332Z,9.90
2019-05-01T00:31:23.959Z,10.00
2019-05-01T00:33:53.405Z,9.90
2019-05-01T00:36:22.851Z,9.90
2019-05-01T00:38:52.323Z,10.10
2019-05-01T00:41:21.755Z,9.90
2019-05-01T00:43:51.201Z,10.00
2019-05-01T00:46:20.669Z,9.80
2019-05-01T00:48:50.119Z,10.00
2019-05-01T00:51:19.544Z,9.90
2019-05-01T00:53:49.012Z,9.80
2019-05-01T00:56:22.809Z,10.10
2019-05-01T00:58:56.789Z,10.00
2019-05-01T01:01:44.399Z,9.70
2019-05-01T01:04:15.896Z,9.60
2019-05-01T01:06:45.341Z,9.60
2019-05-01T01:09:16.323Z,9.60
2019-05-01T01:11:45.933Z,9.30
2019-05-01T01:14:15.381Z,9.20
2019-05-01T01:16:44.838Z,9.20
2019-05-01T01:19:14.375Z,9.10
2019-05-01T01:21:43.947Z,9.10
2019-05-01T01:24:13.405Z,9.30
2019-05-01T01:26:42.879Z,9.10
2019-05-01T01:29:12.322Z,9.10
2019-05-01T01:31:41.812Z,9.10
2019-05-01T01:34:11.297Z,9.20
2019-05-01T01:36:40.741Z,9.10
2019-05-01T01:39:10.188Z,9.20
2019-05-01T01:41:39.826Z,9.00
2019-05-01T01:44:24.864Z,8.90
2019-05-01T01:47:01.816Z,8.90
2019-05-01T01:49:31.593Z,9.00
2019-05-01T01:52:01.744Z,9.10
2019-05-01T01:54:32.041Z,9.40
2019-05-01T01:57:01.558Z,9.20
2019-05-01T01:59:31.602Z,8.90
2019-05-01T02:02:02.753Z,8.90
2019-05-01T02:04:33.992Z,8.80
2019-05-01T02:07:03.500Z,9.10
2019-05-01T02:09:32.973Z,8.80
2019-05-01T02:12:02.961Z,8.80
2019-05-01T02:14:32.405Z,8.90
2019-05-01T02:17:01.883Z,9.20
2019-05-01T02:19:31.331Z,9.70
2019-05-01T02:22:00.777Z,10.20
2019-05-01T02:24:30.254Z,10.40
2019-05-01T02:27:04.503Z,9.70
2019-05-01T02:29:38.931Z,8.80
2019-05-01T02:32:08.848Z,8.80
2019-05-01T02:34:39.508Z,8.70
2019-05-01T02:37:13.607Z,8.80
2019-05-01T02:39:45.262Z,9.10
2019-05-01T02:42:18.611Z,8.60
2019-05-01T02:44:52.843Z,8.40
2019-05-01T02:47:27.063Z,8.50
2019-05-01T02:50:09.785Z,8.30
2019-05-01T02:52:43.669Z,8.20
2019-05-01T02:55:15.542Z,8.20
2019-05-01T02:57:47.034Z,8.10
2019-05-01T03:00:16.887Z,8.00
2019-05-01T03:02:46.524Z,8.00
2019-05-01T03:05:16.379Z,8.00
2019-05-01T03:07:46.411Z,8.10
2019-05-01T03:10:16.442Z,8.00
2019-05-01T03:12:50.230Z,7.90
2019-05-01T03:15:22.384Z,7.90
2019-05-01T03:18:12.376Z,8.00
2019-05-01T03:20:58.866Z,7.90
2019-05-01T03:23:30.217Z,7.90
2019-05-01T03:26:00.579Z,7.90
2019-05-01T03:28:30.390Z,7.80
2019-05-01T03:31:00.001Z,7.90
2019-05-01T03:33:29.730Z,8.00
2019-05-01T03:35:59.645Z,8.50
2019-05-01T03:38:30.412Z,8.40
2019-05-01T03:41:01.160Z,8.30
2019-05-01T03:43:31.686Z,8.60
2019-05-01T03:46:01.296Z,8.10
2019-05-01T03:48:31.041Z,8.30
2019-05-01T03:51:00.502Z,8.40
2019-05-01T03:53:30.565Z,8.20
2019-05-01T03:56:00.546Z,8.10
2019-05-01T03:58:30.505Z,8.00
2019-05-01T04:01:02.288Z,8.10
2019-05-01T04:03:36.729Z,8.30
2019-05-01T04:06:06.686Z,8.10
2019-05-01T04:08:36.989Z,8.50
2019-05-01T04:11:06.460Z,8.50
2019-05-01T04:13:35.905Z,8.10
2019-05-01T04:16:05.956Z,8.20
2019-05-01T04:18:35.685Z,8.10
2019-05-01T04:21:07.222Z,8.20
2019-05-01T04:23:37.960Z,8.40
2019-05-01T04:26:08.885Z,8.10
2019-05-01T04:28:40.326Z,8.10
2019-05-01T04:31:28.243Z,8.00
2019-05-01T04:33:59.313Z,8.10
2019-05-01T04:36:30.565Z,7.90
2019-05-01T04:39:00.751Z,7.90
2019-05-01T04:41:30.435Z,7.80
2019-05-01T04:44:00.081Z,7.90
2019-05-01T04:46:29.892Z,7.90
2019-05-01T04:48:59.677Z,7.90
2019-05-01T04:51:29.533Z,7.90
2019-05-01T04:53:59.666Z,7.90
2019-05-01T04:56:29.359Z,8.10
2019-05-01T04:58:59.546Z,8.10
2019-05-01T05:01:30.910Z,8.00
2019-05-01T05:04:00.520Z,7.80
2019-05-01T05:06:30.127Z,7.90
2019-05-01T05:09:00.110Z,8.10
2019-05-01T05:11:34.700Z,7.90
2019-05-01T05:14:08.558Z,7.90
2019-05-01T05:16:45.426Z,7.90
2019-05-01T05:19:15.458Z,8.10
2019-05-01T05:21:45.140Z,8.00
2019-05-01T05:24:14.926Z,8.00
2019-05-01T05:26:45.217Z,8.00
2019-05-01T05:29:19.249Z,8.10
2019-05-01T05:31:49.721Z,8.00
2019-05-01T05:34:22.247Z,8.10
2019-05-01T05:36:56.032Z,8.20
2019-05-01T05:39:42.857Z,8.20
2019-05-01T05:42:13.040Z,8.40
2019-05-01T05:44:43.130Z,8.30
2019-05-01T05:47:12.822Z,8.40
2019-05-01T05:49:42.490Z,8.50
2019-05-01T05:52:21.356Z,8.60
2019-05-01T05:55:06.841Z,8.60
2019-05-01T05:57:56.800Z,8.70
2019-05-01T06:00:30.121Z,8.80
2019-05-01T06:03:08.153Z,8.90
2019-05-01T06:05:45.481Z,9.00
2019-05-01T06:08:23.346Z,9.10
2019-05-01T06:10:58.538Z,9.20
2019-05-01T06:13:45.316Z,9.30
2019-05-01T06:16:17.432Z,9.30
2019-05-01T06:18:48.529Z,9.40
2019-05-01T06:21:19.990Z,9.50
2019-05-01T06:24:05.926Z,9.60
2019-05-01T06:26:39.241Z,9.70
2019-05-01T06:29:07.448Z,9.70
2019-05-01T06:31:37.414Z,9.80
2019-05-01T06:34:07.058Z,9.90
2019-05-01T06:36:36.831Z,10.00
2019-05-01T06:39:11.923Z,10.10
2019-05-01T06:41:43.582Z,10.20
2019-05-01T06:44:19.640Z,10.10
2019-05-01T06:46:51.324Z,10.30
2019-05-01T06:49:24.113Z,10.30
2019-05-01T06:51:59.035Z,10.40
2019-05-01T06:54:31.997Z,10.50
2019-05-01T06:57:04.245Z,10.50
2019-05-01T06:59:37.242Z,10.50
2019-05-01T07:02:09.730Z,10.70
2019-05-01T07:04:40.290Z,10.70
2019-05-01T07:07:24.741Z,10.80
2019-05-01T07:09:44.074Z,10.90
2019-05-01T07:12:17.978Z,10.90
2019-05-01T07:14:52.107Z,10.90
2019-05-01T07:17:22.687Z,11.00
2019-05-01T07:19:54.657Z,11.10
2019-05-01T07:22:24.867Z,11.20
2019-05-01T07:24:58.938Z,11.30
2019-05-01T07:27:27.118Z,11.50
2019-05-01T07:30:00.941Z,11.50
2019-05-01T07:32:30.596Z,11.50
2019-05-01T07:35:01.901Z,11.50
2019-05-01T07:37:31.449Z,11.60
2019-05-01T07:40:01.217Z,11.70
2019-05-01T07:43:02.426Z,11.80
2019-05-01T07:45:43.584Z,11.90
2019-05-01T07:48:11.871Z,12.00
2019-05-01T07:50:41.600Z,12.20
2019-05-01T07:53:11.173Z,12.20
2019-05-01T07:55:40.652Z,12.30
2019-05-01T07:58:15.904Z,12.30
2019-05-01T08:00:53.135Z,12.60
2019-05-01T08:03:24.090Z,12.40
2019-05-01T08:05:53.519Z,12.40
2019-05-01T08:08:22.971Z,12.30
2019-05-01T08:10:52.471Z,12.30
2019-05-01T08:13:21.905Z,12.40
2019-05-01T08:15:51.382Z,12.50
2019-05-01T08:18:24.002Z,12.60
2019-05-01T08:21:04.017Z,12.70
2019-05-01T08:23:33.522Z,12.60
2019-05-01T08:26:03.992Z,12.50
2019-05-01T08:28:41.595Z,12.70
2019-05-01T08:31:12.681Z,12.70
2019-05-01T08:33:51.592Z,12.80
2019-05-01T08:36:21.174Z,13.00
2019-05-01T08:38:50.627Z,13.30
2019-05-01T08:41:20.307Z,13.40
2019-05-01T08:43:54.116Z,13.30
2019-05-01T08:46:41.107Z,13.60
2019-05-01T08:49:12.672Z,13.80
2019-05-01T08:51:47.119Z,13.80
2019-05-01T08:54:16.572Z,13.90
2019-05-01T08:56:46.485Z,13.80
2019-05-01T08:59:19.388Z,13.70
2019-05-01T09:01:50.592Z,13.80
2019-05-01T09:04:18.852Z,13.80
2019-05-01T09:06:48.488Z,13.90
2019-05-01T09:09:17.936Z,14.00
2019-05-01T09:11:54.597Z,14.00
2019-05-01T09:14:23.652Z,14.30
2019-05-01T09:16:53.112Z,14.50
2019-05-01T09:19:22.579Z,14.70
2019-05-01T09:21:52.049Z,15.00
2019-05-01T09:24:23.204Z,14.90
2019-05-01T09:27:00.391Z,14.80
2019-05-01T09:29:40.840Z,15.00
2019-05-01T09:32:11.929Z,14.90
2019-05-01T09:34:41.509Z,15.00
2019-05-01T09:37:10.965Z,15.20
2019-05-01T09:39:41.049Z,15.00
2019-05-01T09:42:10.771Z,14.80
2019-05-01T09:44:40.215Z,15.20
2019-05-01T09:47:10.335Z,15.40
2019-05-01T09:49:39.851Z,15.40
2019-05-01T09:52:18.952Z,15.50
2019-05-01T09:54:58.570Z,15.60
2019-05-01T09:57:28.038Z,15.70
2019-05-01T09:59:57.490Z,15.90
2019-05-01T10:02:26.941Z,16.20
2019-05-01T10:04:56.405Z,16.20
2019-05-01T10:07:28.843Z,16.30
2019-05-01T10:09:57.080Z,16.50
2019-05-01T10:12:26.555Z,16.40
2019-05-01T10:14:56.258Z,16.10
2019-05-01T10:17:25.682Z,16.40
2019-05-01T10:19:55.169Z,16.50
2019-05-01T10:22:24.591Z,16.30
2019-05-01T10:24:54.044Z,16.30
2019-05-01T10:27:25.156Z,16.60
2019-05-01T10:30:12.692Z,16.60
2019-05-01T10:32:43.842Z,16.60
2019-05-01T10:35:21.067Z,16.80
2019-05-01T10:37:50.580Z,16.70
2019-05-01T10:40:22.334Z,16.30
2019-05-01T10:42:51.446Z,16.70
2019-05-01T10:45:20.925Z,16.80
2019-05-01T10:47:50.376Z,16.80
2019-05-01T10:50:19.803Z,16.90
2019-05-01T10:52:49.277Z,17.10
2019-05-01T10:55:18.704Z,17.30
2019-05-01T10:57:48.138Z,17.40
2019-05-01T11:00:18.394Z,17.60
2019-05-01T11:02:47.887Z,17.50
2019-05-01T11:05:17.343Z,17.30
2019-05-01T11:07:46.822Z,17.10
2019-05-01T11:10:16.558Z,17.50
2019-05-01T11:12:46.020Z,17.50
2019-05-01T11:15:16.701Z,17.60
2019-05-01T11:17:46.127Z,17.90
2019-05-01T11:20:15.655Z,18.00
2019-05-01T11:22:45.106Z,18.00
2019-05-01T11:25:16.540Z,18.00
2019-05-01T11:27:45.982Z,18.20
2019-05-01T11:30:15.762Z,18.20
2019-05-01T11:32:49.782Z,18.50
2019-05-01T11:35:29.968Z,18.00
2019-05-01T11:38:17.258Z,18.60
2019-05-01T11:40:54.359Z,18.50
2019-05-01T11:43:23.807Z,18.00
2019-05-01T11:45:53.264Z,18.20
2019-05-01T11:48:25.103Z,18.30
2019-05-01T11:50:54.381Z,18.00
2019-05-01T11:53:23.852Z,18.10
2019-05-01T11:55:53.435Z,17.90
2019-05-01T11:58:22.866Z,18.10
2019-05-01T12:00:53.959Z,18.30
2019-05-01T12:03:23.406Z,18.30
2019-05-01T12:05:52.929Z,18.30
2019-05-01T12:08:22.378Z,18.30
2019-05-01T12:10:51.859Z,18.10
2019-05-01T12:13:21.300Z,18.40
2019-05-01T12:15:52.364Z,18.70
2019-05-01T12:18:21.846Z,18.40
2019-05-01T12:20:51.286Z,18.50
2019-05-01T12:23:20.735Z,18.50
2019-05-01T12:25:50.389Z,18.20
2019-05-01T12:28:19.814Z,18.30
2019-05-01T12:30:49.350Z,18.50
2019-05-01T12:33:18.817Z,18.90
2019-05-01T12:35:49.901Z,18.80
2019-05-01T12:38:19.358Z,18.70
2019-05-01T12:41:06.349Z,18.40
2019-05-01T12:43:35.783Z,18.70
2019-05-01T12:46:05.483Z,18.80
2019-05-01T12:48:34.988Z,18.60
2019-05-01T12:51:04.673Z,18.80
2019-05-01T12:53:35.830Z,18.30
2019-05-01T12:56:09.574Z,18.50
2019-05-01T12:58:39.100Z,18.50
2019-05-01T13:01:08.686Z,18.10
2019-05-01T13:03:38.160Z,18.20
2019-05-01T13:06:07.600Z,18.40
2019-05-01T13:08:37.033Z,18.30
2019-05-01T13:11:06.503Z,18.50
2019-05-01T13:13:35.953Z,18.70
2019-05-01T13:16:05.465Z,17.90
2019-05-01T13:18:35.282Z,18.30
2019-05-01T13:21:04.730Z,18.00
2019-05-01T13:23:34.179Z,18.50
2019-05-01T13:26:05.461Z,18.60
2019-05-01T13:28:45.338Z,18.00
2019-05-01T13:31:19.177Z,17.80
2019-05-01T13:33:48.634Z,17.80
2019-05-01T13:36:18.087Z,18.00
2019-05-01T13:38:47.572Z,18.40
2019-05-01T13:41:17.019Z,18.50
2019-05-01T13:43:46.521Z,18.30
2019-05-01T13:46:15.985Z,18.00
2019-05-01T13:48:45.519Z,17.90
2019-05-01T13:51:14.977Z,17.70
2019-05-01T13:53:44.425Z,18.20
2019-05-01T13:56:13.850Z,18.60
2019-05-01T13:58:43.312Z,18.70
2019-05-01T14:01:13.249Z,18.10
2019-05-01T14:03:42.703Z,18.10
2019-05-01T14:06:12.147Z,18.30
2019-05-01T14:08:41.619Z,18.20
2019-05-01T14:11:11.048Z,17.80
2019-05-01T14:13:40.515Z,17.30
2019-05-01T14:16:10.198Z,17.60
2019-05-01T14:18:39.648Z,17.50
2019-05-01T14:21:13.701Z,17.60
2019-05-01T14:24:00.872Z,17.50
2019-05-01T14:26:31.569Z,17.90
2019-05-01T14:29:01.018Z,18.10
2019-05-01T14:31:33.137Z,18.40
2019-05-01T14:34:02.436Z,18.10
2019-05-01T14:36:31.955Z,18.40
2019-05-01T14:39:01.609Z,18.10
2019-05-01T14:41:31.057Z,18.40
2019-05-01T14:44:00.505Z,18.40
2019-05-01T14:46:29.979Z,18.50
2019-05-01T14:48:59.435Z,18.30
2019-05-01T14:51:28.883Z,18.40
2019-05-01T14:53:58.333Z,18.90
2019-05-01T14:56:27.838Z,18.80
2019-05-01T14:58:57.296Z,18.80
2019-05-01T15:01:26.784Z,18.20
2019-05-01T15:03:56.223Z,18.50
2019-05-01T15:06:25.681Z,18.30
2019-05-01T15:08:55.161Z,18.50
2019-05-01T15:11:24.615Z,18.30
2019-05-01T15:13:55.703Z,18.00
2019-05-01T15:16:43.087Z,18.10
2019-05-01T15:19:17.595Z,17.90
2019-05-01T15:21:47.047Z,18.00
2019-05-01T15:24:16.628Z,17.90
2019-05-01T15:26:47.243Z,18.00
2019-05-01T15:29:16.780Z,18.30
2019-05-01T15:31:46.240Z,18.40
2019-05-01T15:34:15.697Z,17.80
2019-05-01T15:36:45.131Z,18.00
2019-05-01T15:39:16.226Z,18.00
2019-05-01T15:41:53.012Z,17.90
2019-05-01T15:44:24.104Z,17.80
2019-05-01T15:46:53.540Z,17.80
2019-05-01T15:49:23.006Z,18.10
2019-05-01T15:51:52.462Z,17.80
2019-05-01T15:54:21.923Z,17.90
2019-05-01T15:56:51.746Z,18.10
2019-05-01T15:59:21.306Z,17.90
2019-05-01T16:01:50.755Z,18.00
2019-05-01T16:04:20.331Z,17.80
2019-05-01T16:06:49.746Z,17.70
2019-05-01T16:09:19.290Z,17.60
2019-05-01T16:11:50.355Z,17.60
2019-05-01T16:14:19.813Z,17.60
2019-05-01T16:16:49.326Z,17.90
2019-05-01T16:19:18.793Z,17.80
2019-05-01T16:21:48.252Z,17.40
2019-05-01T16:24:17.710Z,17.30
2019-05-01T16:26:47.210Z,17.50
2019-05-01T16:29:16.660Z,17.40
2019-05-01T16:31:46.142Z,17.00
2019-05-01T16:34:15.624Z,17.10
2019-05-01T16:36:45.103Z,17.20
2019-05-01T16:39:16.203Z,17.70
2019-05-01T16:41:49.425Z,17.10
2019-05-01T16:44:18.889Z,16.90
2019-05-01T16:46:48.371Z,17.10
2019-05-01T16:49:17.842Z,17.30
2019-05-01T16:51:47.299Z,17.40
2019-05-01T16:54:16.731Z,17.40
2019-05-01T16:56:46.230Z,17.10
2019-05-01T16:59:15.669Z,17.10
2019-05-01T17:01:46.791Z,17.40
2019-05-01T17:04:17.905Z,17.80
2019-05-01T17:06:55.274Z,17.90
2019-05-01T17:09:44.991Z,18.10
2019-05-01T17:12:16.217Z,17.90
2019-05-01T17:14:45.696Z,17.80
2019-05-01T17:17:16.825Z,17.80
2019-05-01T17:19:46.256Z,17.80
2019-05-01T17:22:21.730Z,17.90
2019-05-01T17:24:51.169Z,17.60
2019-05-01T17:27:20.623Z,17.60
2019-05-01T17:29:50.083Z,17.80
2019-05-01T17:32:19.809Z,17.80
2019-05-01T17:34:49.283Z,17.60
2019-05-01T17:37:18.737Z,17.50
2019-05-01T17:39:48.188Z,17.50
2019-05-01T17:42:17.671Z,17.40
2019-05-01T17:44:47.143Z,17.50
2019-05-01T17:47:17.953Z,17.20
2019-05-01T17:49:47.796Z,17.10
2019-05-01T17:52:17.266Z,17.00
2019-05-01T17:54:46.695Z,17.10
2019-05-01T17:57:16.170Z,17.00
2019-05-01T17:59:49.234Z,17.00
2019-05-01T18:02:29.090Z,16.90
2019-05-01T18:05:01.538Z,16.90
2019-05-01T18:07:33.211Z,16.80
2019-05-01T18:10:02.195Z,16.80
2019-05-01T18:12:31.643Z,16.60
2019-05-01T18:15:01.095Z,16.60
2019-05-01T18:17:30.573Z,16.40
2019-05-01T18:20:00.004Z,16.50
2019-05-01T18:22:49.014Z,16.30
2019-05-01T18:25:20.086Z,16.40
2019-05-01T18:28:03.094Z,16.40
2019-05-01T18:30:38.800Z,16.40
2019-05-01T18:33:08.346Z,16.40
2019-05-01T18:35:37.778Z,16.30
2019-05-01T18:38:12.991Z,16.30
2019-05-01T18:40:44.182Z,16.10
2019-05-01T18:43:13.905Z,16.20
2019-05-01T18:45:55.456Z,16.00
2019-05-01T18:48:25.717Z,15.70
2019-05-01T18:50:56.411Z,16.00
2019-05-01T18:53:26.237Z,16.10
2019-05-01T18:55:55.870Z,16.10
2019-05-01T18:58:25.396Z,16.00
2019-05-01T19:00:54.869Z,15.90
2019-05-01T19:03:25.543Z,15.70
2019-05-01T19:05:55.431Z,15.70
2019-05-01T19:08:24.915Z,15.60
2019-05-01T19:10:54.362Z,15.60
2019-05-01T19:13:23.910Z,15.60
2019-05-01T19:15:53.357Z,15.50
2019-05-01T19:18:22.984Z,15.50
2019-05-01T19:20:59.295Z,15.50
2019-05-01T19:23:28.038Z,15.40
2019-05-01T19:25:56.562Z,15.40
2019-05-01T19:28:26.679Z,15.20
2019-05-01T19:30:56.824Z,15.30
2019-05-01T19:33:26.831Z,15.20
2019-05-01T19:35:56.339Z,15.20
2019-05-01T19:38:29.582Z,15.20
2019-05-01T19:40:57.301Z,15.20
2019-05-01T19:43:26.711Z,15.20
2019-05-01T19:45:56.462Z,15.30
2019-05-01T19:48:25.932Z,15.10
2019-05-01T19:50:55.434Z,15.00
2019-05-01T19:53:25.005Z,15.00
2019-05-01T19:55:54.491Z,14.90
2019-05-01T19:58:23.996Z,14.90
2019-05-01T20:01:00.331Z,15.00
2019-05-01T20:03:35.390Z,14.90
2019-05-01T20:06:05.436Z,14.80
2019-05-01T20:08:33.067Z,14.70
2019-05-01T20:11:03.446Z,14.70
2019-05-01T20:13:32.878Z,14.70
2019-05-01T20:16:02.433Z,14.60
2019-05-01T20:18:31.879Z,14.50
2019-05-01T20:21:01.327Z,14.60
2019-05-01T20:23:31.846Z,14.70
2019-05-01T20:26:02.047Z,14.50
2019-05-01T20:28:31.495Z,14.50
2019-05-01T20:31:00.968Z,14.50
2019-05-01T20:33:33.205Z,14.50
2019-05-01T20:36:05.186Z,14.40
2019-05-01T20:38:32.788Z,14.40
2019-05-01T20:41:02.560Z,14.30
2019-05-01T20:43:33.607Z,14.20
2019-05-01T20:46:03.214Z,14.30
2019-05-01T20:48:32.658Z,14.30
2019-05-01T20:51:02.106Z,14.10
2019-05-01T20:53:31.581Z,14.10
2019-05-01T20:56:05.295Z,14.10
2019-05-01T20:58:34.746Z,13.90
2019-05-01T21:01:04.477Z,13.90
2019-05-01T21:03:35.017Z,13.80
2019-05-01T21:06:28.025Z,13.80
2019-05-01T21:09:13.677Z,13.80
2019-05-01T21:11:47.293Z,13.70
2019-05-01T21:14:21.766Z,13.70
2019-05-01T21:16:45.356Z,13.70
2019-05-01T21:19:14.863Z,13.60
2019-05-01T21:21:44.322Z,13.60
2019-05-01T21:24:14.119Z,13.60
2019-05-01T21:26:43.687Z,13.50
2019-05-01T21:29:14.063Z,13.60
2019-05-01T21:31:44.196Z,13.40
2019-05-01T21:34:14.510Z,13.40
2019-05-01T21:36:47.358Z,13.40
2019-05-01T21:39:17.422Z,13.40
2019-05-01T21:41:46.947Z,13.40
2019-05-01T21:44:16.400Z,13.30
2019-05-01T21:46:45.850Z,13.30
2019-05-01T21:49:15.330Z,13.20
2019-05-01T21:51:46.199Z,13.20
2019-05-01T21:54:20.525Z,13.10
2019-05-01T21:56:47.130Z,13.10
2019-05-01T21:59:16.603Z,13.10
2019-05-01T22:01:46.262Z,13.10
2019-05-01T22:04:15.755Z,13.10
2019-05-01T22:06:46.829Z,13.00
2019-05-01T22:09:17.993Z,13.00
2019-05-01T22:11:47.548Z,13.00
2019-05-01T22:14:18.648Z,13.00
2019-05-01T22:16:48.268Z,12.90
2019-05-01T22:19:22.468Z,12.90
2019-05-01T22:21:59.404Z,12.90
2019-05-01T22:24:30.576Z,12.90
2019-05-01T22:27:01.643Z,12.90
2019-05-01T22:29:34.183Z,12.90
2019-05-01T22:32:08.372Z,12.80
2019-05-01T22:34:42.379Z,12.80
2019-05-01T22:37:11.880Z,12.70
2019-05-01T22:39:43.003Z,12.70
2019-05-01T22:42:12.621Z,12.60
2019-05-01T22:44:42.072Z,12.70
2019-05-01T22:47:15.121Z,12.60
2019-05-01T22:49:42.722Z,12.60
2019-05-01T22:52:12.228Z,12.60
2019-05-01T22:54:44.851Z,12.50
2019-05-01T22:57:13.651Z,12.50
2019-05-01T22:59:43.101Z,12.50
2019-05-01T23:02:17.026Z,12.50
2019-05-01T23:04:48.254Z,12.50
2019-05-01T23:07:18.626Z,12.50
2019-05-01T23:09:48.203Z,12.50
2019-05-01T23:12:17.655Z,12.40
2019-05-01T23:14:47.379Z,12.30
2019-05-01T23:17:21.515Z,12.30
2019-05-01T23:19:50.944Z,12.30
2019-05-01T23:22:22.054Z,12.30
2019-05-01T23:24:51.503Z,12.40
2019-05-01T23:27:24.389Z,12.40
2019-05-01T23:29:52.254Z,12.30
2019-05-01T23:32:21.723Z,12.20
2019-05-01T23:34:51.174Z,12.20
2019-05-01T23:37:20.624Z,12.20
2019-05-01T23:39:50.117Z,12.10
2019-05-01T23:42:19.567Z,12.20
2019-05-01T23:44:49.016Z,12.20
2019-05-01T23:47:18.491Z,12.20
2019-05-01T23:49:52.497Z,12.20
2019-05-01T23:52:19.288Z,12.20
2019-05-01T23:54:48.769Z,12.20
2019-05-01T23:57:18.894Z,12.20
2019-05-01T23:59:49.317Z,12.20
